Uni Wealth — VRFV4 — position and weather

sailwx.info

Track history (hours):
 
Tides and Currents Weather Stations Pressure Air Temp Water Temp Dewpoint Dewpoint Depression Visibility Wind Speed Wind Dir Waves Ship Positions

Uni Wealth

Last reported at 2017-May-29 13:53 UTC. Time now 2017-Jun-24 09:00 UTC.
Position N 29°57' E 128°04'.
Warning: this ship's position is 25 days out of date.

Length 170 m; draft 6.1 m.

Type: Cargo ship. MMSI: 477621200.

Date/timePositionNaut miles runAvg speedWind from/ knotsBaromVisibWave heightAir tempDewpointWater temp
2017-May-29 13:53N 29°57' E 128°04'511.7
2017-May-29 13:29N 29°59' E 128°08'611.6
2017-May-29 12:58N 30°03' E 128°14'5912.1
2017-May-29 08:04N 30°37' E 129°10'112.8
2017-May-29 07:59N 30°37' E 129°11'613.1
2017-May-29 07:30N 30°41' E 129°17'1712.8
2017-May-29 06:11N 30°50' E 129°33'1612.3
2017-May-29 04:52N 31°00' E 129°48'14 7.8
2017-May-29 03:04N 31°10' E 130°01'0 0.7
2017-May-29 02:52N 31°10' E 130°00'0 0.5
2017-May-29 02:30N 31°10' E 130°00'0 0.5
2017-May-29 01:47N 31°10' E 130°00'  
2017-May-25 23:15N 34°44' E 139°47'  
Track history (hours):
 
Tides and Currents Weather Stations Pressure Air Temp Water Temp Dewpoint Dewpoint Depression Visibility Wind Speed Wind Dir Waves Ship Positions

Uni Wealth

Last reported at 2017-May-29 13:53 UTC. Time now 2017-Jun-24 09:00 UTC.
Position N 29°57' E 128°04'.
Warning: this ship's position is 25 days out of date.

Length 170 m; draft 6.1 m.

Type: Cargo ship. MMSI: 477621200.

Date/timePositionNaut miles runAvg speedWind from/ knotsBaromVisibWave heightAir tempDewpointWater temp
2017-May-29 13:53N 29°57' E 128°04'511.7
2017-May-29 13:29N 29°59' E 128°08'611.6
2017-May-29 12:58N 30°03' E 128°14'5912.1
2017-May-29 08:04N 30°37' E 129°10'112.8
2017-May-29 07:59N 30°37' E 129°11'613.1
2017-May-29 07:30N 30°41' E 129°17'1712.8
2017-May-29 06:11N 30°50' E 129°33'1612.3
2017-May-29 04:52N 31°00' E 129°48'14 7.8
2017-May-29 03:04N 31°10' E 130°01'0 0.7
2017-May-29 02:52N 31°10' E 130°00'0 0.5
2017-May-29 02:30N 31°10' E 130°00'0 0.5
2017-May-29 01:47N 31°10' E 130°00'  
2017-May-25 23:15N 34°44' E 139°47'  

Dump ship's entire track history